Gilmer, TX (75644)

8:18 PM CST on February 11, 2016 (GMT -0600)
Bettie, Texas | | Change Station
CLOSE
Current Station
Personal Weather Station
Location: Gilmer, TX
Elevation: 371 ft
Nearby Weather Stations

Elev 371 ft 32.81 °N, 94.96 °W | Updated 29 seconds ago

Clear
Clear
57.8 °F
Feels Like 57.8 °F
N
2.2
Wind Variable Wind from NW

Today
High -- | Low -- °F
--% Chance of Precip.
Yesterday
High -- | Low -- °F
Precip. -- in
Pressure 30.10 in
Visibility 10.0 miles
Clouds Clear
Dew Point 39 °F
Humidity 50%
Rainfall 0.00 in
Snow Depth Not available.
7:07 AM 6:01 PM
Waxing Crescent, 16% visible
METAR KJXI 120155Z AUTO 00000KT 10SM CLR 14/04 A3010 RMK AO2 T01350038
Pressure 30.10 in
Visibility 10.0 miles
Clouds Clear
Dew Point 39 °F
Humidity 50%
Rainfall 0.00 in
Snow Depth Not available.
7:07 AM 6:01 PM
Waxing Crescent, 16% visible
METAR KJXI 120155Z AUTO 00000KT 10SM CLR 14/04 A3010 RMK AO2 T01350038

10-Day Weather Forecast

Almanac

Astronomy

Feb. 11, 2016 Rise Set
Actual Time
Civil Twilight
Nautical Twilight
Astronomical Twilight
Moon
Length of Visible Light
Length of Day
Tomorrow will be .
, % of the Moon is Illuminated

Today's Extremes

State Highs State Lows

Community

WunderPhotos

Upload Photos

1,892,225 photos uploaded!

WunderBlog® & News

Nearby

Air Quality

  Air Quality AQ Index Pollutant
Not available.

Snow Depth

Station Depth Elevation

Earthquake Activity

City Distance Mag. Time & Date
Minimum magnitude displayed is 2.5.

Coastal Water Temperatures

Place Temperature

Stations

Nearby Weather Stations

Station Location Temp. Windchill Dew Point Humidity Wind Precip. Elev Updated Type
                   

Watches & Warnings

There are currently no watches in effect.